cubair logo

For once you have tasted flight you will walk the earth with your eyes turned skywards,
for there you have been and there you will long to return.


"Leonardo da Vinci"

Cub Air Flight was founded in 2006, by Steve and Sharon Krog. Cub Air Flight school uses vintage Piper J3 Cub aircraft to instruct in, following a philosophy that “old school is still cool.” Cub Air Flight believes that these fine classic airplanes make better pilots by requiring more attention and flying skill than newer airplanes. We at Cub Air Flight hold that flying a vintage airplane is as much an art as it is a science.

The Piper J3 Cub is revered among aviators as a truly classic and iconic airplane. It has served as a trainer to more pilots than almost any airplane, earning a reputation as easy to fly but yet challenging enough to force students to continually better themselves. Cub Air uses two J3 Cubs, restored and maintained with the same attention to detail as a lovingly restored classic car. Cub Air also uses a Piper Cherokee for training requiring an aircraft with more advanced instruments.

PrintEmail

Come fly with us and feel the freedom of
flying, the way it's supposed to be!


"Old School Is Still Cool!"

Our Staff

Steve Krog
Sharon Krog
Jamie Weber
Luke Lachendro
Chris Hibben

Shop Our Store

shopping-cart-icon-515

Find Us Here!

Hartford Municipal

Airport (KHXF)

4200 Highway U

Hartford, WI 53027

Oshkosh Weather

[source: ADDS]
METAR
KOSH 010853Z 34010KT 10SM OVC034 M01/M06 A3043 RMK AO2 SLP318 T10061061 53001 $ =
TAF

West Bend Weather

[source: ADDS]
METAR
WX-Data not avlb.
(due to wrong input of icao-codes or 'allow_url_fopen' is OFF [1] and cURL not enabled [1] on this server!)
TAF

Juneau Weather

[source: ADDS]
METAR
KUNU 010915Z AUTO 34006KT 10SM OVC030 00/M06 A3044 RMK AO2 T10051061 =
TAF

Fond Du Lac Weather

[source: ADDS]
METAR
KFLD 010853Z AUTO 02013KT 10SM OVC030 01/M06 A3043 RMK AO2 SLP312 T00111056 50000 =
TAF